createdAt,value
2018-06-27T00:00:07.213Z,3.00
2018-06-27T00:01:07.200Z,3.30
2018-06-27T00:02:21.698Z,3.40
2018-06-27T00:03:07.700Z,3.40
2018-06-27T00:04:07.703Z,3.60
2018-06-27T00:05:08.698Z,3.50
2018-06-27T00:06:08.207Z,3.80
2018-06-27T00:08:39.566Z,3.50
2018-06-27T00:09:38.928Z,3.80
2018-06-27T00:10:39.596Z,3.50
2018-06-27T00:13:32.322Z,3.80
2018-06-27T00:14:32.330Z,3.60
2018-06-27T00:15:33.258Z,3.40
2018-06-27T00:17:43.070Z,3.70
2018-06-27T00:18:42.413Z,3.50
2018-06-27T00:19:43.085Z,4.30
2018-06-27T00:21:04.079Z,3.90
2018-06-27T00:23:14.092Z,3.60
2018-06-27T00:24:14.841Z,3.80
2018-06-27T00:25:14.314Z,3.90
2018-06-27T00:27:46.572Z,3.90
2018-06-27T00:28:46.617Z,3.90
2018-06-27T00:29:46.580Z,4.40
2018-06-27T00:30:46.579Z,3.90
2018-06-27T00:31:47.079Z,4.10
2018-06-27T00:32:47.079Z,4.00
2018-06-27T00:33:47.116Z,3.90
2018-06-27T00:34:47.080Z,3.90
2018-06-27T00:36:08.582Z,4.10
2018-06-27T00:36:46.811Z,3.80
2018-06-27T00:37:48.512Z,4.10
2018-06-27T00:38:47.044Z,4.30
2018-06-27T00:40:09.075Z,3.90
2018-06-27T00:40:48.093Z,3.80
2018-06-27T00:41:47.421Z,3.90
2018-06-27T00:42:48.080Z,4.00
2018-06-27T00:43:48.579Z,4.10
2018-06-27T00:44:48.587Z,3.90
2018-06-27T00:45:48.579Z,4.00
2018-06-27T00:46:49.577Z,4.20
2018-06-27T00:47:49.079Z,4.50
2018-06-27T00:49:10.080Z,4.90
2018-06-27T00:49:49.079Z,4.90
2018-06-27T00:50:49.076Z,4.80
2018-06-27T00:51:49.579Z,5.10
2018-06-27T00:53:09.776Z,4.90
2018-06-27T00:55:21.036Z,4.30
2018-06-27T00:56:42.051Z,4.20
2018-06-27T00:57:21.043Z,3.80
2018-06-27T01:00:13.042Z,3.90
2018-06-27T01:00:52.142Z,3.90
2018-06-27T01:01:59.736Z,3.90
2018-06-27T01:02:53.303Z,3.90
2018-06-27T01:03:53.303Z,3.90
2018-06-27T01:04:53.303Z,3.90
2018-06-27T01:05:53.303Z,4.00
2018-06-27T01:06:52.901Z,4.40
2018-06-27T01:07:53.801Z,4.90
2018-06-27T01:08:55.280Z,4.40
2018-06-27T01:09:53.269Z,4.20
2018-06-27T01:10:53.390Z,4.80
2018-06-27T01:12:10.735Z,4.80
2018-06-27T01:12:54.320Z,4.60
2018-06-27T01:13:53.774Z,4.40
2018-06-27T01:15:08.802Z,4.80
2018-06-27T01:16:15.804Z,4.80
2018-06-27T01:16:54.804Z,4.10
2018-06-27T01:17:54.286Z,4.30
2018-06-27T01:18:55.303Z,4.50
2018-06-27T01:19:56.251Z,4.40
2018-06-27T01:20:55.302Z,4.30
2018-06-27T01:21:55.301Z,4.60
2018-06-27T01:22:54.899Z,4.50
2018-06-27T01:24:16.803Z,4.20
2018-06-27T01:24:55.803Z,4.50
2018-06-27T01:25:55.331Z,4.60
2018-06-27T01:26:57.803Z,4.00
2018-06-27T01:27:56.300Z,4.30
2018-06-27T01:28:56.311Z,5.00
2018-06-27T01:29:57.301Z,4.90
2018-06-27T01:30:58.802Z,5.20
2018-06-27T01:31:56.807Z,4.50
2018-06-27T01:33:17.807Z,4.30
2018-06-27T01:33:56.276Z,4.50
2018-06-27T01:34:56.379Z,4.30
2018-06-27T01:35:57.302Z,4.20
2018-06-27T01:36:57.304Z,4.50
2018-06-27T01:37:57.298Z,4.20
2018-06-27T01:38:57.300Z,4.20
2018-06-27T01:41:29.046Z,4.40
2018-06-27T01:42:29.052Z,4.50
2018-06-27T01:43:29.552Z,4.90
2018-06-27T01:44:29.559Z,4.80
2018-06-27T01:45:29.555Z,4.40
2018-06-27T01:46:32.485Z,4.40
2018-06-27T01:47:29.552Z,4.80
2018-06-27T01:48:30.056Z,4.70
2018-06-27T01:49:30.054Z,4.30
2018-06-27T01:50:30.055Z,4.30
2018-06-27T01:51:30.051Z,4.80
2018-06-27T01:52:30.552Z,4.40
2018-06-27T01:53:30.549Z,4.20
2018-06-27T01:54:30.558Z,4.00
2018-06-27T01:55:30.564Z,4.10
2018-06-27T01:56:52.985Z,3.90
2018-06-27T01:57:45.048Z,4.30
2018-06-27T01:58:45.126Z,4.60
2018-06-27T01:59:31.052Z,4.10
2018-06-27T02:00:31.558Z,4.40
2018-06-27T02:01:37.552Z,4.30
2018-06-27T02:02:31.552Z,4.20
2018-06-27T02:03:31.552Z,4.20
2018-06-27T02:04:32.057Z,4.10
2018-06-27T02:05:38.052Z,4.30
2018-06-27T02:06:32.053Z,4.00
2018-06-27T02:07:32.052Z,4.40
2018-06-27T02:08:33.552Z,4.10
2018-06-27T02:09:32.551Z,4.40
2018-06-27T02:10:53.554Z,4.20
2018-06-27T02:11:33.054Z,4.40
2018-06-27T02:12:36.523Z,4.10
2018-06-27T02:13:33.053Z,4.20
2018-06-27T02:14:33.076Z,4.20
2018-06-27T02:15:33.055Z,4.40
2018-06-27T02:16:33.552Z,4.50
2018-06-27T02:17:33.551Z,4.40
2018-06-27T02:18:33.552Z,4.70
2018-06-27T02:19:33.551Z,4.50
2018-06-27T02:20:35.513Z,4.60
2018-06-27T02:21:34.057Z,4.70
2018-06-27T02:22:34.052Z,4.60
2018-06-27T02:23:34.051Z,4.70
2018-06-27T02:26:05.802Z,4.40
2018-06-27T02:27:07.741Z,4.30
2018-06-27T02:28:06.771Z,4.50
2018-06-27T02:29:08.307Z,4.10
2018-06-27T02:30:06.309Z,4.40
2018-06-27T02:31:06.309Z,4.00
2018-06-27T02:32:06.308Z,4.20
2018-06-27T02:33:26.888Z,4.10
2018-06-27T02:34:06.810Z,4.20
2018-06-27T02:35:06.814Z,4.70
2018-06-27T02:36:06.809Z,4.90
2018-06-27T02:37:06.808Z,4.00
2018-06-27T02:38:07.312Z,4.00
2018-06-27T02:40:40.716Z,4.30
2018-06-27T02:41:38.069Z,4.10
2018-06-27T02:42:38.723Z,4.40
2018-06-27T02:43:39.230Z,4.90
2018-06-27T02:44:39.249Z,4.70
2018-06-27T02:45:39.221Z,4.40
2018-06-27T02:46:39.222Z,4.30
2018-06-27T02:48:01.677Z,4.40
2018-06-27T02:50:34.043Z,4.60
2018-06-27T02:51:10.396Z,4.90
2018-06-27T02:52:11.057Z,4.50
2018-06-27T02:53:13.552Z,4.50
2018-06-27T02:54:11.549Z,4.70
2018-06-27T02:55:11.555Z,4.70
2018-06-27T02:56:13.524Z,4.10
2018-06-27T02:57:13.484Z,4.30
2018-06-27T02:58:14.051Z,4.40
2018-06-27T02:59:12.049Z,4.70
2018-06-27T03:00:12.053Z,4.50
2018-06-27T03:01:12.052Z,4.60
2018-06-27T03:02:14.549Z,4.40
2018-06-27T03:03:39.548Z,5.10
2018-06-27T03:04:33.551Z,4.80
2018-06-27T03:05:12.549Z,5.20
2018-06-27T03:06:34.049Z,4.90
2018-06-27T03:07:34.050Z,4.50
2018-06-27T03:08:13.059Z,4.50
2018-06-27T03:09:34.059Z,4.20
2018-06-27T03:10:27.552Z,4.10
2018-06-27T03:11:33.747Z,4.60
2018-06-27T03:12:13.550Z,4.80
2018-06-27T03:13:13.556Z,5.20
2018-06-27T03:14:13.546Z,5.20
2018-06-27T03:15:14.049Z,5.30
2018-06-27T03:16:14.051Z,5.10
2018-06-27T03:17:14.048Z,5.20
2018-06-27T03:18:13.549Z,5.10
2018-06-27T03:19:14.552Z,5.00
2018-06-27T03:20:14.567Z,5.00
2018-06-27T03:21:14.548Z,5.10
2018-06-27T03:22:14.549Z,4.90
2018-06-27T03:23:14.145Z,4.40
2018-06-27T03:24:36.049Z,4.80
2018-06-27T03:25:14.406Z,4.60
2018-06-27T03:26:21.048Z,5.60
2018-06-27T03:27:22.550Z,5.80
2018-06-27T03:29:46.910Z,4.90
2018-06-27T03:30:46.918Z,5.00
2018-06-27T03:31:46.915Z,4.60
2018-06-27T03:32:47.414Z,4.60
2018-06-27T03:33:48.877Z,4.50
2018-06-27T03:34:47.419Z,4.80
2018-06-27T03:35:47.416Z,4.80
2018-06-27T03:36:47.012Z,4.80
2018-06-27T03:37:48.921Z,5.40
2018-06-27T03:38:47.921Z,5.50
2018-06-27T03:39:47.915Z,5.40
2018-06-27T03:41:09.414Z,6.00
2018-06-27T03:41:48.418Z,5.90
2018-06-27T03:42:48.421Z,5.90
2018-06-27T03:43:48.415Z,5.10
2018-06-27T03:44:50.912Z,5.20
2018-06-27T03:45:51.846Z,5.00
2018-06-27T03:47:09.924Z,4.70
2018-06-27T03:47:50.848Z,5.00
2018-06-27T03:49:12.412Z,5.10
2018-06-27T03:50:09.503Z,4.70
2018-06-27T03:51:10.414Z,5.60
2018-06-27T03:51:49.414Z,5.70
2018-06-27T03:52:49.419Z,5.90
2018-06-27T03:53:49.422Z,5.70
2018-06-27T03:55:03.916Z,5.60
2018-06-27T03:56:10.917Z,5.50
2018-06-27T03:56:49.915Z,5.50
2018-06-27T03:57:49.914Z,5.60
2018-06-27T04:00:21.661Z,5.50
2018-06-27T04:02:55.115Z,5.00
2018-06-27T04:03:54.113Z,5.30
2018-06-27T04:04:53.661Z,5.10
2018-06-27T04:06:14.661Z,5.10
2018-06-27T04:07:14.661Z,4.70
2018-06-27T04:08:15.617Z,5.10
2018-06-27T04:08:53.094Z,5.00
2018-06-27T04:10:14.167Z,5.20
2018-06-27T04:10:53.269Z,5.00
2018-06-27T04:11:56.593Z,5.10
2018-06-27T04:13:18.718Z,5.10
2018-06-27T04:13:54.161Z,5.30
2018-06-27T04:14:54.161Z,5.20
2018-06-27T04:16:15.661Z,5.30
2018-06-27T04:18:26.031Z,5.10
2018-06-27T04:19:25.391Z,5.50
2018-06-27T04:20:26.039Z,5.50
2018-06-27T04:21:26.536Z,5.00
2018-06-27T04:22:47.537Z,5.20
2018-06-27T04:23:28.007Z,5.50
2018-06-27T04:24:47.537Z,5.50
2018-06-27T04:25:49.511Z,5.50
2018-06-27T04:26:47.215Z,5.40
2018-06-27T04:27:49.503Z,5.40
2018-06-27T04:28:27.043Z,5.40
2018-06-27T04:29:48.969Z,5.20
2018-06-27T04:30:37.970Z,5.30
2018-06-27T04:36:01.824Z,5.50
2018-06-27T04:37:24.206Z,5.80
2018-06-27T04:38:01.772Z,5.70
2018-06-27T04:39:08.300Z,5.60
2018-06-27T04:40:02.271Z,5.20
2018-06-27T04:41:23.278Z,5.30
2018-06-27T04:42:02.272Z,5.30
2018-06-27T04:43:16.836Z,5.50
2018-06-27T04:44:02.772Z,6.20
2018-06-27T04:45:23.771Z,5.90
2018-06-27T04:46:02.771Z,5.60
2018-06-27T04:48:35.952Z,5.40
2018-06-27T04:49:33.863Z,5.90
2018-06-27T04:50:54.956Z,5.90
2018-06-27T04:53:08.643Z,6.20
2018-06-27T04:54:06.206Z,6.00
2018-06-27T04:55:27.206Z,6.40
2018-06-27T04:57:37.971Z,5.50
2018-06-27T04:58:37.980Z,6.20
2018-06-27T04:59:37.978Z,5.90
2018-06-27T05:00:40.911Z,5.80
2018-06-27T05:01:38.526Z,6.30
2018-06-27T05:02:37.831Z,6.70
2018-06-27T05:05:32.524Z,6.60
2018-06-27T05:06:11.523Z,6.50
2018-06-27T05:07:10.091Z,6.80
2018-06-27T05:08:10.627Z,6.80
2018-06-27T05:09:10.594Z,6.80
2018-06-27T05:10:10.592Z,6.80
2018-06-27T05:11:10.591Z,7.10
2018-06-27T05:13:42.349Z,7.10
2018-06-27T05:14:42.361Z,6.70
2018-06-27T05:15:42.367Z,6.90
2018-06-27T05:18:15.536Z,7.30
2018-06-27T05:19:14.104Z,7.00
2018-06-27T05:20:14.104Z,7.40
2018-06-27T05:21:16.059Z,7.10
2018-06-27T05:23:59.933Z,7.70
2018-06-27T05:24:45.273Z,7.70
2018-06-27T05:25:45.934Z,7.50
2018-06-27T05:27:07.433Z,8.00
2018-06-27T05:28:07.440Z,7.60
2018-06-27T05:28:46.435Z,6.90
2018-06-27T05:29:46.435Z,8.00
2018-06-27T05:30:46.941Z,7.90
2018-06-27T05:31:46.167Z,7.60
2018-06-27T05:32:46.935Z,7.60
2018-06-27T05:33:46.934Z,7.60
2018-06-27T05:34:47.435Z,8.70
2018-06-27T05:35:47.435Z,8.20
2018-06-27T05:36:46.782Z,8.90
2018-06-27T05:37:47.438Z,8.00
2018-06-27T05:39:08.009Z,7.70
2018-06-27T05:40:08.934Z,8.10
2018-06-27T05:40:47.158Z,8.20
2018-06-27T05:41:47.261Z,7.70
2018-06-27T05:42:47.937Z,7.70
2018-06-27T05:43:47.960Z,7.70
2018-06-27T05:46:40.712Z,8.00
2018-06-27T05:48:51.713Z,8.80
2018-06-27T05:49:51.720Z,8.20
2018-06-27T05:50:51.722Z,8.80
2018-06-27T05:51:52.215Z,8.70
2018-06-27T05:54:46.024Z,8.30
2018-06-27T05:55:23.592Z,8.50
2018-06-27T05:56:44.592Z,7.80
2018-06-27T05:57:30.094Z,8.20
2018-06-27T05:58:45.106Z,10.10
2018-06-27T05:59:38.142Z,11.40
2018-06-27T06:00:23.602Z,10.10
2018-06-27T06:01:23.700Z,10.90
2018-06-27T06:02:24.590Z,10.20
2018-06-27T06:03:24.591Z,10.80
2018-06-27T06:04:24.615Z,10.50
2018-06-27T06:06:56.354Z,10.80
2018-06-27T06:07:56.363Z,10.40
2018-06-27T06:08:56.347Z,10.40
2018-06-27T06:11:28.177Z,10.00
2018-06-27T06:12:29.111Z,9.80
2018-06-27T06:13:28.116Z,9.90
2018-06-27T06:14:34.623Z,10.20
2018-06-27T06:17:22.443Z,10.20
2018-06-27T06:18:00.020Z,9.40
2018-06-27T06:19:00.025Z,9.20
2018-06-27T06:20:00.512Z,9.70
2018-06-27T06:21:21.514Z,9.20
2018-06-27T06:22:00.515Z,8.70
2018-06-27T06:23:00.516Z,8.70
2018-06-27T06:24:24.016Z,9.40
2018-06-27T06:25:01.012Z,8.50
2018-06-27T06:26:01.012Z,9.40
2018-06-27T06:28:22.509Z,9.50
2018-06-27T06:30:53.922Z,8.90
2018-06-27T06:31:33.937Z,9.20
2018-06-27T06:32:32.971Z,9.80
2018-06-27T06:33:36.865Z,8.70
2018-06-27T06:34:54.429Z,8.80
2018-06-27T06:35:47.429Z,9.40
2018-06-27T06:38:00.940Z,8.60
2018-06-27T06:41:44.195Z,8.30
2018-06-27T06:42:36.763Z,7.90
2018-06-27T06:43:36.762Z,7.60
2018-06-27T06:44:37.267Z,8.60
2018-06-27T06:45:37.264Z,8.40
2018-06-27T06:46:37.263Z,8.40
2018-06-27T06:48:00.195Z,8.30
2018-06-27T06:48:58.764Z,8.60
2018-06-27T06:49:58.771Z,8.20
2018-06-27T06:50:37.764Z,8.60
2018-06-27T06:51:37.763Z,7.90
2018-06-27T06:52:38.257Z,8.30
2018-06-27T06:53:38.264Z,10.70
2018-06-27T06:54:38.263Z,9.90
2018-06-27T06:55:38.266Z,8.70
2018-06-27T06:56:52.763Z,7.70
2018-06-27T06:59:30.439Z,7.60
2018-06-27T07:00:09.539Z,7.20
2018-06-27T07:01:10.119Z,7.40
2018-06-27T07:02:10.655Z,7.20
2018-06-27T07:03:09.902Z,6.90
2018-06-27T07:04:10.655Z,7.40
2018-06-27T07:05:10.656Z,6.90
2018-06-27T07:07:48.413Z,7.00
2018-06-27T07:10:27.913Z,6.20
2018-06-27T07:14:18.342Z,8.20
2018-06-27T07:15:38.376Z,8.50
2018-06-27T07:16:16.856Z,8.40
2018-06-27T07:17:17.874Z,8.30
2018-06-27T07:19:57.240Z,7.20
2018-06-27T07:20:49.784Z,7.50
2018-06-27T07:21:50.283Z,6.30
2018-06-27T07:22:50.288Z,6.60
2018-06-27T07:23:52.290Z,6.40
2018-06-27T07:24:50.285Z,7.20
2018-06-27T07:27:43.043Z,7.20
2018-06-27T07:28:22.064Z,5.70
2018-06-27T07:29:22.548Z,5.60
2018-06-27T07:30:21.652Z,5.10
2018-06-27T07:31:43.550Z,5.70
2018-06-27T07:34:15.063Z,5.20
2018-06-27T07:34:54.096Z,5.10
2018-06-27T07:36:15.080Z,5.60
2018-06-27T07:37:08.568Z,5.60
2018-06-27T07:37:54.570Z,5.90
2018-06-27T07:38:54.570Z,6.20
2018-06-27T07:39:54.571Z,6.80
2018-06-27T07:41:17.513Z,6.60
2018-06-27T07:41:56.507Z,5.80
2018-06-27T07:44:26.471Z,6.20
2018-06-27T07:46:59.451Z,6.00
2018-06-27T07:47:57.983Z,6.00
2018-06-27T07:48:58.002Z,5.70
2018-06-27T07:50:25.486Z,6.10
2018-06-27T07:51:19.484Z,6.00
2018-06-27T07:51:57.847Z,5.70
2018-06-27T07:52:58.484Z,6.20
2018-06-27T07:53:58.124Z,6.00
2018-06-27T07:54:58.984Z,6.00
2018-06-27T07:55:58.341Z,5.60
2018-06-27T07:56:58.985Z,5.70
2018-06-27T07:57:59.918Z,6.00
2018-06-27T07:59:22.487Z,5.80
2018-06-27T08:00:04.486Z,5.50
2018-06-27T08:01:13.496Z,6.10
2018-06-27T08:01:59.498Z,6.00
2018-06-27T08:02:59.998Z,5.80
2018-06-27T08:03:59.220Z,5.70
2018-06-27T08:04:59.985Z,6.00
2018-06-27T08:06:00.098Z,5.90
2018-06-27T08:07:21.487Z,6.60
2018-06-27T08:07:59.734Z,6.30
2018-06-27T08:09:00.486Z,5.90
2018-06-27T08:10:00.492Z,6.20
2018-06-27T08:11:21.075Z,6.00
2018-06-27T08:13:32.347Z,6.20
2018-06-27T08:14:59.332Z,6.40
2018-06-27T08:15:32.334Z,6.30
2018-06-27T08:16:31.937Z,6.50
2018-06-27T08:17:53.161Z,6.20
2018-06-27T08:18:32.835Z,5.70
2018-06-27T08:19:32.858Z,5.60
2018-06-27T08:20:32.837Z,6.00
2018-06-27T08:21:47.332Z,5.40
2018-06-27T08:24:10.658Z,5.60
2018-06-27T08:28:07.679Z,5.50
2018-06-27T08:29:30.620Z,5.50
2018-06-27T08:30:07.166Z,5.40
2018-06-27T08:32:39.434Z,4.80
2018-06-27T08:33:38.788Z,5.20
2018-06-27T08:34:39.435Z,5.30
2018-06-27T08:35:42.391Z,5.40
2018-06-27T08:38:11.270Z,5.00
2018-06-27T08:39:11.277Z,4.60
2018-06-27T08:40:10.782Z,4.60
2018-06-27T08:41:25.776Z,4.60
2018-06-27T08:42:11.780Z,4.20
2018-06-27T08:43:13.778Z,4.60
2018-06-27T08:45:43.212Z,3.90
2018-06-27T08:46:43.314Z,4.20
2018-06-27T08:47:43.926Z,3.90
2018-06-27T08:48:44.428Z,3.40
2018-06-27T08:52:47.768Z,3.00
2018-06-27T08:54:10.246Z,2.50
2018-06-27T08:54:47.787Z,2.70
2018-06-27T08:55:48.708Z,2.70
2018-06-27T08:56:48.275Z,2.70
2018-06-27T08:58:09.275Z,2.80
2018-06-27T08:59:09.275Z,2.40
2018-06-27T08:59:48.276Z,2.80
2018-06-27T09:00:48.775Z,3.00
2018-06-27T09:01:48.774Z,2.90
2018-06-27T09:04:47.300Z,3.10
2018-06-27T09:06:53.806Z,3.50
2018-06-27T09:09:23.340Z,3.10
2018-06-27T09:11:54.841Z,3.40
2018-06-27T09:12:54.848Z,3.30
2018-06-27T09:13:54.848Z,3.40
2018-06-27T09:14:55.347Z,3.20
2018-06-27T09:17:26.744Z,3.70
2018-06-27T09:18:26.745Z,3.60
2018-06-27T09:19:26.745Z,4.20
2018-06-27T09:21:58.502Z,4.00
2018-06-27T09:22:58.506Z,3.80
2018-06-27T09:23:59.438Z,4.00
2018-06-27T09:25:01.006Z,3.80
2018-06-27T09:26:00.481Z,3.30
2018-06-27T09:26:59.011Z,4.10
2018-06-27T09:28:13.007Z,4.60
2018-06-27T09:35:48.494Z,3.90
2018-06-27T09:36:48.091Z,4.10
2018-06-27T09:37:41.993Z,4.60
2018-06-27T09:38:27.353Z,4.60
2018-06-27T09:39:48.997Z,4.20
2018-06-27T09:40:49.498Z,4.60
2018-06-27T09:41:30.507Z,4.80
2018-06-27T09:42:28.503Z,4.30
2018-06-27T09:43:28.497Z,4.30
2018-06-27T09:44:30.998Z,5.00
2018-06-27T09:45:49.999Z,4.50
2018-06-27T09:46:28.359Z,4.50
2018-06-27T09:47:30.996Z,4.60
2018-06-27T09:48:52.499Z,4.50
2018-06-27T09:49:52.499Z,5.00
2018-06-27T09:50:29.617Z,4.80
2018-06-27T09:51:50.064Z,5.00
2018-06-27T09:52:32.002Z,4.90
2018-06-27T09:53:52.460Z,5.00
2018-06-27T09:54:52.453Z,4.70
2018-06-27T09:55:44.001Z,4.60
2018-06-27T09:56:32.433Z,4.80
2018-06-27T09:59:01.101Z,5.40
2018-06-27T10:00:08.276Z,5.20
2018-06-27T10:01:01.267Z,5.20
2018-06-27T10:02:16.308Z,5.00
2018-06-27T10:03:02.308Z,4.90
2018-06-27T10:04:25.748Z,5.40
2018-06-27T10:05:02.318Z,5.00
2018-06-27T10:06:02.307Z,4.80
2018-06-27T10:07:27.265Z,5.10
2018-06-27T10:08:23.002Z,5.30
2018-06-27T10:09:23.807Z,4.80
2018-06-27T10:10:08.811Z,4.70
2018-06-27T10:11:23.813Z,4.30
2018-06-27T10:12:17.316Z,4.90
2018-06-27T10:13:03.308Z,4.60
2018-06-27T10:14:24.309Z,4.10
2018-06-27T10:16:40.941Z,4.70
2018-06-27T10:19:06.443Z,4.60
2018-06-27T10:20:08.445Z,4.70
2018-06-27T10:21:18.877Z,4.90
2018-06-27T10:23:44.214Z,4.40
2018-06-27T10:24:59.216Z,4.50
2018-06-27T10:25:38.213Z,4.40
2018-06-27T10:26:37.816Z,4.70
2018-06-27T10:27:38.727Z,4.40
2018-06-27T10:28:38.714Z,4.20
2018-06-27T10:29:53.213Z,3.90
2018-06-27T10:32:10.487Z,4.00
2018-06-27T10:33:31.498Z,4.50
2018-06-27T10:34:10.489Z,4.00
2018-06-27T10:35:10.992Z,3.90
2018-06-27T10:37:56.385Z,3.50
2018-06-27T10:41:47.355Z,3.20
2018-06-27T10:42:45.360Z,3.30
2018-06-27T10:43:45.359Z,3.10
2018-06-27T10:44:51.860Z,3.50
2018-06-27T10:45:45.864Z,3.60
2018-06-27T10:46:52.792Z,3.60
2018-06-27T10:47:45.331Z,3.40
2018-06-27T10:50:17.624Z,3.80
2018-06-27T10:51:18.539Z,3.10
2018-06-27T10:52:19.038Z,2.90
2018-06-27T10:53:17.202Z,3.20
2018-06-27T10:54:38.301Z,2.80
2018-06-27T10:55:18.109Z,2.90
2018-06-27T10:56:18.107Z,2.70
2018-06-27T10:57:18.106Z,2.20
2018-06-27T10:58:20.611Z,1.90
2018-06-27T10:59:39.607Z,2.00
2018-06-27T11:04:45.126Z,1.70
2018-06-27T11:05:22.698Z,1.80
2018-06-27T11:06:22.044Z,1.80
2018-06-27T11:07:22.692Z,3.70
2018-06-27T11:08:22.259Z,2.50
2018-06-27T11:10:57.020Z,2.20
2018-06-27T11:12:22.030Z,1.60
2018-06-27T11:12:54.546Z,1.20
2018-06-27T11:15:26.900Z,1.00
2018-06-27T11:16:26.844Z,1.10
2018-06-27T11:17:48.314Z,1.10
2018-06-27T11:18:27.420Z,0.90
2018-06-27T11:19:48.322Z,1.00
2018-06-27T11:21:27.816Z,1.20
2018-06-27T11:22:48.816Z,1.10
2018-06-27T11:23:27.189Z,1.10
2018-06-27T11:24:29.249Z,1.00
2018-06-27T11:26:58.984Z,1.10
2018-06-27T11:29:33.595Z,1.00
2018-06-27T11:30:30.826Z,1.30
2018-06-27T11:31:38.596Z,1.30
2018-06-27T11:32:33.134Z,1.10
2018-06-27T11:33:38.118Z,1.10
2018-06-27T11:37:36.971Z,1.00
2018-06-27T11:40:26.772Z,1.10
2018-06-27T11:41:12.493Z,1.40
2018-06-27T11:43:38.134Z,0.90
2018-06-27T11:47:47.095Z,0.90
2018-06-27T11:50:14.601Z,1.60
2018-06-27T11:52:44.149Z,1.10
2018-06-27T11:53:44.156Z,1.00
2018-06-27T11:55:05.156Z,1.10
2018-06-27T11:55:46.659Z,1.30
2018-06-27T11:59:48.940Z,1.00
2018-06-27T12:01:08.505Z,1.00
2018-06-27T12:01:47.013Z,1.00
2018-06-27T12:03:08.089Z,0.90
2018-06-27T12:04:11.007Z,1.00
2018-06-27T12:04:54.012Z,0.80
2018-06-27T12:05:48.006Z,0.90
2018-06-27T12:06:50.507Z,0.90
2018-06-27T12:07:50.506Z,0.90
2018-06-27T12:10:20.024Z,1.00
2018-06-27T12:11:20.032Z,0.90
2018-06-27T12:12:19.542Z,0.90
2018-06-27T12:13:40.617Z,1.10
2018-06-27T12:14:19.724Z,1.10
2018-06-27T12:15:20.531Z,0.80
2018-06-27T12:16:22.549Z,0.80
2018-06-27T12:17:41.531Z,0.90
2018-06-27T12:18:23.033Z,0.80
2018-06-27T12:19:21.031Z,1.00
2018-06-27T12:20:21.036Z,1.00
2018-06-27T12:21:21.039Z,0.90
2018-06-27T12:22:27.532Z,1.10
2018-06-27T12:23:27.530Z,1.00
2018-06-27T12:24:21.537Z,0.90
2018-06-27T12:25:21.537Z,0.90
2018-06-27T12:28:07.299Z,1.00
2018-06-27T12:28:59.304Z,0.90
2018-06-27T12:29:53.305Z,1.00
2018-06-27T12:30:52.961Z,0.90
2018-06-27T12:31:54.242Z,1.00
2018-06-27T12:32:53.173Z,1.00
2018-06-27T12:33:56.236Z,0.90
2018-06-27T12:34:57.716Z,1.00
2018-06-27T12:39:03.131Z,1.10
2018-06-27T12:39:57.138Z,1.00
2018-06-27T12:40:57.141Z,1.20
2018-06-27T12:41:59.648Z,1.00
2018-06-27T12:44:43.042Z,1.30
2018-06-27T12:45:29.053Z,1.20
2018-06-27T12:46:50.076Z,0.90
2018-06-27T12:47:52.560Z,0.90
2018-06-27T12:48:29.547Z,1.30
2018-06-27T12:49:29.562Z,1.30
2018-06-27T12:52:01.735Z,1.60
2018-06-27T12:53:03.147Z,1.30
2018-06-27T12:57:04.952Z,1.20
2018-06-27T12:58:04.954Z,1.10
2018-06-27T13:03:53.126Z,1.30
2018-06-27T13:04:29.645Z,1.10
2018-06-27T13:07:30.925Z,1.30
2018-06-27T13:08:03.924Z,1.10
2018-06-27T13:09:24.926Z,1.10
2018-06-27T13:10:03.937Z,1.00
2018-06-27T13:11:04.426Z,1.10
2018-06-27T13:12:03.660Z,1.40
2018-06-27T13:13:27.449Z,1.10
2018-06-27T13:14:04.427Z,1.20
2018-06-27T13:15:05.902Z,1.10
2018-06-27T13:16:04.938Z,1.00
2018-06-27T13:17:04.938Z,1.10
2018-06-27T13:18:04.933Z,1.00
2018-06-27T13:19:08.412Z,1.10
2018-06-27T13:20:26.424Z,1.30
2018-06-27T13:21:27.446Z,1.20
2018-06-27T13:22:07.726Z,1.20
2018-06-27T13:23:19.925Z,1.30
2018-06-27T13:24:26.935Z,1.20
2018-06-27T13:25:06.919Z,1.10
2018-06-27T13:26:26.936Z,1.20
2018-06-27T13:27:05.938Z,1.10
2018-06-27T13:28:27.427Z,1.20
2018-06-27T13:29:05.645Z,1.20
2018-06-27T13:30:06.430Z,1.10
2018-06-27T13:31:08.421Z,1.20
2018-06-27T13:32:06.043Z,1.30
2018-06-27T13:34:38.289Z,1.20
2018-06-27T13:35:38.303Z,1.20
2018-06-27T13:36:59.302Z,1.20
2018-06-27T13:38:00.806Z,1.10
2018-06-27T13:38:38.798Z,1.20
2018-06-27T13:39:38.801Z,1.50
2018-06-27T13:40:38.870Z,1.30
2018-06-27T13:41:42.748Z,1.10
2018-06-27T13:42:39.297Z,1.10
2018-06-27T13:43:39.309Z,1.30
2018-06-27T13:44:40.731Z,1.10
2018-06-27T13:45:38.907Z,1.20
2018-06-27T13:46:40.297Z,1.00
2018-06-27T13:47:39.800Z,1.20
2018-06-27T13:48:39.810Z,1.10
2018-06-27T13:53:03.285Z,1.40
2018-06-27T13:53:43.018Z,1.10
2018-06-27T13:54:43.020Z,1.30
2018-06-27T13:59:07.270Z,1.20
2018-06-27T13:59:46.282Z,1.20
2018-06-27T14:00:46.285Z,1.20
2018-06-27T14:01:53.775Z,1.10
2018-06-27T14:03:07.778Z,1.00
2018-06-27T14:05:18.813Z,1.00
2018-06-27T14:06:18.844Z,1.10
2018-06-27T14:07:18.183Z,2.00
2018-06-27T14:08:20.269Z,1.50
2018-06-27T14:10:50.577Z,1.20
2018-06-27T14:11:50.651Z,1.20
2018-06-27T14:12:50.583Z,1.30
2018-06-27T14:14:14.084Z,1.20
2018-06-27T14:14:52.081Z,1.10
2018-06-27T14:15:53.056Z,1.30
2018-06-27T14:16:51.083Z,1.20
2018-06-27T14:18:16.048Z,1.20
2018-06-27T14:20:43.943Z,1.00
2018-06-27T14:21:22.949Z,1.20
2018-06-27T14:22:28.950Z,1.10
2018-06-27T14:23:23.453Z,1.10
2018-06-27T14:25:54.830Z,1.20
2018-06-27T14:27:02.304Z,1.20
2018-06-27T14:27:54.834Z,1.20
2018-06-27T14:28:55.337Z,1.30
2018-06-27T14:31:26.736Z,1.30
2018-06-27T14:32:26.740Z,1.10
2018-06-27T14:33:26.216Z,0.90
2018-06-27T14:34:41.242Z,0.90
2018-06-27T14:36:58.620Z,1.30
2018-06-27T14:38:13.621Z,0.90
2018-06-27T14:38:58.624Z,1.00
2018-06-27T14:40:21.059Z,1.20
2018-06-27T14:41:00.563Z,1.10
2018-06-27T14:42:20.130Z,1.10
2018-06-27T14:42:59.124Z,0.90
2018-06-27T14:43:59.197Z,0.90
2018-06-27T14:44:58.730Z,3.60
2018-06-27T14:46:20.635Z,1.70
2018-06-27T14:47:01.592Z,0.80
2018-06-27T14:47:59.625Z,1.20
2018-06-27T14:49:21.189Z,1.30
2018-06-27T14:51:52.508Z,1.20
2018-06-27T14:52:32.951Z,1.20
2018-06-27T14:53:32.456Z,1.20
2018-06-27T14:54:38.033Z,1.00
2018-06-27T14:58:40.753Z,1.00
2018-06-27T14:59:34.189Z,1.10
2018-06-27T15:00:58.686Z,0.90
2018-06-27T15:01:35.255Z,1.30
2018-06-27T15:02:35.689Z,0.90
2018-06-27T15:03:35.267Z,1.00
2018-06-27T15:04:35.756Z,1.00
2018-06-27T15:05:34.863Z,1.10
2018-06-27T15:06:35.760Z,1.00
2018-06-27T15:07:35.755Z,1.00
2018-06-27T15:08:35.752Z,0.90
2018-06-27T15:09:57.341Z,1.30
2018-06-27T15:10:36.255Z,1.10
2018-06-27T15:11:35.612Z,1.10
2018-06-27T15:12:36.255Z,1.10
2018-06-27T15:15:29.026Z,0.90
2018-06-27T15:16:29.036Z,1.10
2018-06-27T15:17:29.034Z,1.00
2018-06-27T15:18:07.698Z,0.90
2018-06-27T15:19:07.797Z,1.00
2018-06-27T15:20:15.534Z,1.00
2018-06-27T15:21:08.534Z,1.00
2018-06-27T15:22:29.121Z,0.90
2018-06-27T15:23:23.048Z,1.10
2018-06-27T15:24:30.033Z,0.80
2018-06-27T15:25:09.041Z,1.00
2018-06-27T15:26:09.537Z,1.30
2018-06-27T15:27:11.536Z,1.00
2018-06-27T15:28:09.542Z,1.10
2018-06-27T15:29:09.999Z,1.00
2018-06-27T15:30:09.103Z,1.20
2018-06-27T15:34:34.361Z,0.90
2018-06-27T15:35:14.387Z,0.80
2018-06-27T15:36:35.301Z,1.00
2018-06-27T15:38:45.136Z,1.20
2018-06-27T15:39:46.568Z,1.20
2018-06-27T15:40:45.136Z,1.30
2018-06-27T15:43:22.930Z,0.90
2018-06-27T15:44:16.937Z,0.90
2018-06-27T15:45:16.946Z,1.00
2018-06-27T15:46:40.437Z,1.00
2018-06-27T15:47:41.370Z,1.10
2018-06-27T15:48:23.441Z,0.80
2018-06-27T15:49:17.440Z,1.10
2018-06-27T15:50:17.941Z,1.00
2018-06-27T15:51:17.938Z,1.00
2018-06-27T15:52:17.980Z,1.00
2018-06-27T15:53:17.479Z,1.20
2018-06-27T15:54:18.437Z,0.90
2018-06-27T15:55:39.438Z,1.00
2018-06-27T15:56:18.448Z,1.00
2018-06-27T15:57:18.438Z,1.10
2018-06-27T15:59:50.227Z,0.90
2018-06-27T16:00:50.228Z,0.90
2018-06-27T16:01:50.230Z,1.00
2018-06-27T16:03:13.731Z,1.10
2018-06-27T16:05:23.085Z,1.10
2018-06-27T16:06:23.626Z,1.10
2018-06-27T16:07:22.149Z,1.10
2018-06-27T16:08:49.662Z,1.10
2018-06-27T16:09:43.662Z,1.10
2018-06-27T16:10:43.656Z,1.40
2018-06-27T16:11:24.116Z,1.30
2018-06-27T16:14:15.361Z,1.00
2018-06-27T16:15:14.728Z,1.10
2018-06-27T16:16:15.369Z,1.10
2018-06-27T16:16:55.432Z,1.30
2018-06-27T16:18:00.869Z,1.10
2018-06-27T16:18:54.868Z,1.10
2018-06-27T16:19:58.346Z,1.00
2018-06-27T16:22:28.626Z,1.10
2018-06-27T16:23:26.631Z,0.90
2018-06-27T16:24:26.633Z,1.20
2018-06-27T16:25:27.131Z,1.10
2018-06-27T16:26:27.133Z,1.30
2018-06-27T16:28:59.581Z,1.10
2018-06-27T16:29:58.653Z,0.90
2018-06-27T16:30:58.645Z,1.20
2018-06-27T16:31:59.148Z,1.10
2018-06-27T16:33:01.580Z,1.10